createdAt,value
2023-03-08T00:01:28.656Z,99164.78
2023-03-08T00:03:59.837Z,99166.34
2023-03-08T00:06:27.163Z,99162.25
2023-03-08T00:08:58.882Z,99163.19
2023-03-08T00:11:30.927Z,99161.50
2023-03-08T00:13:58.487Z,99159.56
2023-03-08T00:16:27.546Z,99170.06
2023-03-08T00:18:54.784Z,99170.91
2023-03-08T00:21:21.888Z,99161.31
2023-03-08T00:23:51.514Z,99157.13
2023-03-08T00:26:17.926Z,99143.31
2023-03-08T00:28:47.352Z,99129.72
2023-03-08T00:31:15.330Z,99145.38
2023-03-08T00:33:46.666Z,99138.22
2023-03-08T00:36:28.862Z,99133.44
2023-03-08T00:38:59.833Z,99117.72
2023-03-08T00:41:36.220Z,99117.16
2023-03-08T00:44:02.940Z,99111.66
2023-03-08T00:46:37.100Z,99114.25
2023-03-08T00:49:06.379Z,99094.06
2023-03-08T00:51:37.086Z,99090.84
2023-03-08T00:54:03.894Z,99085.47
2023-03-08T00:56:50.929Z,99090.84
2023-03-08T00:59:18.608Z,99087.81
2023-03-08T01:01:44.960Z,99091.22
2023-03-08T01:04:13.103Z,99078.94
2023-03-08T01:06:48.405Z,99065.69
2023-03-08T01:09:14.934Z,99072.78
2023-03-08T01:11:49.066Z,99076.41
2023-03-08T01:14:17.958Z,99066.97
2023-03-08T01:16:47.099Z,99068.13
2023-03-08T01:19:15.737Z,99074.84
2023-03-08T01:21:42.191Z,99077.34
2023-03-08T01:24:10.813Z,99075.94
2023-03-08T01:26:37.217Z,99063.84
2023-03-08T01:29:12.086Z,99058.81
2023-03-08T01:31:46.053Z,99072.97
2023-03-08T01:34:14.978Z,99069.91
2023-03-08T01:36:41.522Z,99073.53
2023-03-08T01:39:07.953Z,99075.03
2023-03-08T01:41:45.818Z,99059.19
2023-03-08T01:44:27.772Z,99069.63
2023-03-08T01:46:54.160Z,99059.03
2023-03-08T01:49:30.142Z,99071.78
2023-03-08T01:52:02.931Z,99073.63
2023-03-08T01:54:43.917Z,99071.59
2023-03-08T01:57:27.232Z,99091.69
2023-03-08T01:59:57.393Z,99094.53
2023-03-08T02:02:32.349Z,99091.53
2023-03-08T02:05:01.139Z,99085.66
2023-03-08T02:07:27.626Z,99075.22
2023-03-08T02:09:54.793Z,99073.00
2023-03-08T02:12:23.766Z,99068.78
2023-03-08T02:14:50.400Z,99068.78
2023-03-08T02:17:21.867Z,99060.59
2023-03-08T02:19:59.998Z,99056.41
2023-03-08T02:22:26.876Z,99052.03
2023-03-08T02:25:03.950Z,99051.72
2023-03-08T02:27:30.784Z,99042.91
2023-03-08T02:29:57.249Z,99035.19
2023-03-08T02:32:28.094Z,99025.78
2023-03-08T02:34:54.624Z,99017.75
2023-03-08T02:37:21.128Z,99009.91
2023-03-08T02:39:47.619Z,98999.00
2023-03-08T02:42:15.362Z,98993.53
2023-03-08T02:44:41.987Z,98996.75
2023-03-08T02:47:08.972Z,98980.28
2023-03-08T02:49:35.460Z,98975.00
2023-03-08T02:52:03.528Z,98975.34
2023-03-08T02:54:30.192Z,98985.41
2023-03-08T02:56:59.643Z,98981.88
2023-03-08T02:59:31.513Z,98973.56
2023-03-08T03:01:58.048Z,98973.94
2023-03-08T03:04:24.527Z,98967.91
2023-03-08T03:06:51.400Z,98966.41
2023-03-08T03:09:17.860Z,98966.41
2023-03-08T03:11:46.818Z,98968.44
2023-03-08T03:14:13.422Z,98955.34
2023-03-08T03:16:40.028Z,98960.72
2023-03-08T03:19:09.535Z,98952.81
2023-03-08T03:21:37.855Z,98951.97
2023-03-08T03:24:06.842Z,98956.81
2023-03-08T03:26:33.455Z,98943.34
2023-03-08T03:29:00.411Z,98931.69
2023-03-08T03:31:27.608Z,98943.16
2023-03-08T03:33:54.614Z,98949.19
2023-03-08T03:36:22.233Z,98945.84
2023-03-08T03:38:51.460Z,98944.00
2023-03-08T03:41:23.301Z,98938.13
2023-03-08T03:43:50.100Z,98922.97
2023-03-08T03:46:19.238Z,98934.13
2023-03-08T03:48:46.536Z,98914.78
2023-03-08T03:51:15.593Z,98911.41
2023-03-08T03:53:42.356Z,98912.44
2023-03-08T03:56:20.912Z,98916.50
2023-03-08T03:58:47.689Z,98910.94
2023-03-08T04:01:22.826Z,98914.50
2023-03-08T04:03:49.476Z,98918.19
2023-03-08T04:06:21.524Z,98894.28
2023-03-08T04:08:52.452Z,98905.38
2023-03-08T04:11:22.308Z,98896.63
2023-03-08T04:13:52.050Z,98911.13
2023-03-08T04:16:29.423Z,98902.09
2023-03-08T04:19:01.844Z,98913.56
2023-03-08T04:21:31.813Z,98908.81
2023-03-08T04:24:03.811Z,98913.50
2023-03-08T04:26:32.773Z,98904.56
2023-03-08T04:29:01.171Z,98910.78
2023-03-08T04:31:29.680Z,98910.13
2023-03-08T04:33:56.346Z,98896.84
2023-03-08T04:36:23.219Z,98899.34
2023-03-08T04:39:04.136Z,98888.75
2023-03-08T04:41:32.698Z,98886.06
2023-03-08T04:43:59.346Z,98885.00
2023-03-08T04:46:27.664Z,98870.88
2023-03-08T04:48:58.807Z,98889.75
2023-03-08T04:51:26.666Z,98876.09
2023-03-08T04:53:58.835Z,98868.81
2023-03-08T04:56:34.278Z,98872.56
2023-03-08T04:59:00.845Z,98875.44
2023-03-08T05:01:34.580Z,98875.06
2023-03-08T05:04:03.670Z,98855.91
2023-03-08T05:06:33.731Z,98850.69
2023-03-08T05:09:05.902Z,98841.59
2023-03-08T05:11:35.677Z,98844.66
2023-03-08T05:14:04.725Z,98834.88
2023-03-08T05:16:31.384Z,98841.31
2023-03-08T05:18:57.880Z,98840.06
2023-03-08T05:21:24.651Z,98843.81
2023-03-08T05:23:51.064Z,98854.78
2023-03-08T05:26:18.349Z,98851.06
2023-03-08T05:28:51.060Z,98853.09
2023-03-08T05:31:23.206Z,98861.03
2023-03-08T05:33:51.565Z,98848.09
2023-03-08T05:36:21.886Z,98846.06
2023-03-08T05:38:48.501Z,98847.25
2023-03-08T05:41:16.573Z,98832.28
2023-03-08T05:43:51.913Z,98830.59
2023-03-08T05:46:19.769Z,98835.16
2023-03-08T05:48:46.541Z,98810.72
2023-03-08T05:51:21.161Z,98799.53
2023-03-08T05:53:50.340Z,98802.91
2023-03-08T05:56:28.276Z,98798.91
2023-03-08T05:58:55.503Z,98798.69
2023-03-08T06:01:31.186Z,98816.09
2023-03-08T06:04:03.371Z,98794.91
2023-03-08T06:06:30.226Z,98790.16
2023-03-08T06:09:03.981Z,98782.25
2023-03-08T06:11:30.523Z,98783.38
2023-03-08T06:13:57.144Z,98775.94
2023-03-08T06:16:23.638Z,98771.56
2023-03-08T06:18:50.194Z,98777.97
2023-03-08T06:21:21.307Z,98772.03
2023-03-08T06:23:47.954Z,98770.16
2023-03-08T06:26:17.083Z,98767.25
2023-03-08T06:28:46.276Z,98771.09
2023-03-08T06:31:15.164Z,98772.78
2023-03-08T06:33:42.882Z,98770.69
2023-03-08T06:36:12.810Z,98768.84
2023-03-08T06:38:41.083Z,98757.03
2023-03-08T06:41:09.395Z,98788.19
2023-03-08T06:43:36.620Z,98760.59
2023-03-08T06:46:07.872Z,98763.28
2023-03-08T06:48:37.446Z,98755.81
2023-03-08T06:51:05.454Z,98738.78
2023-03-08T06:53:33.395Z,98740.75
2023-03-08T06:56:02.979Z,98748.47
2023-03-08T06:58:29.483Z,98739.34
2023-03-08T07:01:04.262Z,98750.59
2023-03-08T07:03:33.566Z,98745.38
2023-03-08T07:06:01.392Z,98747.06
2023-03-08T07:08:28.275Z,98738.41
2023-03-08T07:10:58.765Z,98738.19
2023-03-08T07:13:25.718Z,98733.06
2023-03-08T07:15:52.403Z,98723.28
2023-03-08T07:18:22.407Z,98721.44
2023-03-08T07:21:02.643Z,98708.56
2023-03-08T07:23:29.225Z,98698.84
2023-03-08T07:25:55.934Z,98677.59
2023-03-08T07:28:22.435Z,98669.84
2023-03-08T07:30:51.284Z,98677.88
2023-03-08T07:33:18.286Z,98677.31
2023-03-08T07:35:44.993Z,98683.47
2023-03-08T07:38:12.514Z,98688.34
2023-03-08T07:40:39.164Z,98666.88
2023-03-08T07:43:06.338Z,98663.06
2023-03-08T07:45:33.032Z,98659.56
2023-03-08T07:48:01.852Z,98665.31
2023-03-08T07:50:31.104Z,98664.38
2023-03-08T07:52:59.915Z,98664.59
2023-03-08T07:55:28.744Z,98661.44
2023-03-08T07:57:57.730Z,98655.47
2023-03-08T08:00:24.629Z,98645.47
2023-03-08T08:02:53.968Z,98643.16
2023-03-08T08:05:22.246Z,98631.72
2023-03-08T08:07:49.178Z,98639.06
2023-03-08T08:10:15.931Z,98625.41
2023-03-08T08:12:47.401Z,98618.44
2023-03-08T08:15:16.796Z,98621.13
2023-03-08T08:17:47.887Z,98607.56
2023-03-08T08:20:14.767Z,98592.72
2023-03-08T08:22:41.387Z,98590.47
2023-03-08T08:25:08.343Z,98573.19
2023-03-08T08:27:35.877Z,98580.72
2023-03-08T08:30:04.362Z,98583.78
2023-03-08T08:32:35.715Z,98575.16
2023-03-08T08:35:02.470Z,98569.84
2023-03-08T08:37:30.330Z,98567.53
2023-03-08T08:39:56.878Z,98563.78
2023-03-08T08:42:23.881Z,98560.63
2023-03-08T08:44:50.347Z,98555.69
2023-03-08T08:47:16.720Z,98559.50
2023-03-08T08:49:45.670Z,98552.53
2023-03-08T08:52:14.438Z,98544.91
2023-03-08T08:54:41.168Z,98529.00
2023-03-08T08:57:07.741Z,98505.75
2023-03-08T08:59:34.376Z,98506.66
2023-03-08T09:02:00.847Z,98504.81
2023-03-08T09:04:27.405Z,98479.94
2023-03-08T09:06:54.233Z,98505.75
2023-03-08T09:09:20.750Z,98503.59
2023-03-08T09:11:54.598Z,98491.16
2023-03-08T09:14:21.795Z,98496.47
2023-03-08T09:16:48.256Z,98495.44
2023-03-08T09:19:16.993Z,98490.06
2023-03-08T09:21:43.388Z,98484.88
2023-03-08T09:24:11.440Z,98474.38
2023-03-08T09:26:37.961Z,98466.22
2023-03-08T09:29:05.539Z,98452.84
2023-03-08T09:31:35.724Z,98453.97
2023-03-08T09:34:08.883Z,98450.88
2023-03-08T09:36:37.294Z,98443.53
2023-03-08T09:39:04.165Z,98443.03
2023-03-08T09:41:50.883Z,98433.75
2023-03-08T09:44:43.661Z,98427.84
2023-03-08T09:47:19.363Z,98420.66
2023-03-08T09:49:49.154Z,98420.66
2023-03-08T09:52:38.435Z,98417.53
2023-03-08T09:55:12.601Z,98414.72
2023-03-08T09:57:46.207Z,98402.59
2023-03-08T10:00:30.471Z,98403.38
2023-03-08T10:03:37.533Z,98400.47
2023-03-08T10:06:34.087Z,98399.09
2023-03-08T10:09:16.550Z,98393.41
2023-03-08T10:11:50.062Z,98386.03
2023-03-08T10:14:24.019Z,98379.34
2023-03-08T10:16:55.853Z,98377.03
2023-03-08T10:19:30.430Z,98379.56
2023-03-08T10:22:03.805Z,98372.72
2023-03-08T10:24:41.661Z,98372.38
2023-03-08T10:27:19.887Z,98377.09
2023-03-08T10:29:55.086Z,98368.56
2023-03-08T10:32:22.850Z,98362.56
2023-03-08T10:34:50.421Z,98363.31
2023-03-08T10:37:19.474Z,98363.75
2023-03-08T10:39:54.977Z,98365.41
2023-03-08T10:42:27.426Z,98359.03
2023-03-08T10:44:53.696Z,98347.41
2023-03-08T10:47:30.915Z,98342.44
2023-03-08T10:50:06.356Z,98340.41
2023-03-08T10:52:35.571Z,98350.00
2023-03-08T10:55:10.599Z,98338.59
2023-03-08T10:57:41.095Z,98341.56
2023-03-08T11:00:21.194Z,98338.44
2023-03-08T11:03:01.717Z,98326.81
2023-03-08T11:05:29.455Z,98319.16
2023-03-08T11:07:59.746Z,98320.66
2023-03-08T11:10:28.015Z,98323.13
2023-03-08T11:13:32.584Z,98309.28
2023-03-08T11:16:07.156Z,98321.94
2023-03-08T11:19:01.761Z,98323.22
2023-03-08T11:22:03.758Z,98325.34
2023-03-08T11:25:01.311Z,98322.03
2023-03-08T11:27:33.488Z,98321.84
2023-03-08T11:30:26.264Z,98323.97
2023-03-08T11:33:18.780Z,98309.63
2023-03-08T11:36:16.348Z,98322.50
2023-03-08T11:38:54.504Z,98316.88
2023-03-08T11:41:23.730Z,98321.69
2023-03-08T11:44:16.415Z,98314.19
2023-03-08T11:46:45.682Z,98308.19
2023-03-08T11:49:49.802Z,98312.31
2023-03-08T11:52:33.555Z,98307.34
2023-03-08T11:55:35.237Z,98311.72
2023-03-08T11:58:36.884Z,98303.22
2023-03-08T12:01:16.771Z,98294.47
2023-03-08T12:04:04.408Z,98300.53
2023-03-08T12:06:40.787Z,98278.47
2023-03-08T12:09:34.523Z,98286.38
2023-03-08T12:12:18.751Z,98281.81
2023-03-08T12:14:56.014Z,98285.13
2023-03-08T12:17:34.460Z,98290.34
2023-03-08T12:20:00.915Z,98289.94
2023-03-08T12:22:44.432Z,98292.19
2023-03-08T12:25:30.631Z,98293.25
2023-03-08T12:28:04.786Z,98285.75
2023-03-08T12:30:49.562Z,98286.16
2023-03-08T12:33:17.290Z,98275.50
2023-03-08T12:35:55.816Z,98268.00
2023-03-08T12:38:25.328Z,98263.41
2023-03-08T12:40:54.680Z,98262.78
2023-03-08T12:43:21.128Z,98257.53
2023-03-08T12:46:01.443Z,98253.34
2023-03-08T12:48:54.568Z,98259.75
2023-03-08T12:51:26.956Z,98254.31
2023-03-08T12:54:02.438Z,98243.59
2023-03-08T12:56:38.220Z,98245.75
2023-03-08T12:59:10.705Z,98232.16
2023-03-08T13:02:00.348Z,98244.63
2023-03-08T13:04:41.720Z,98242.84
2023-03-08T13:07:14.796Z,98252.81
2023-03-08T13:09:41.312Z,98257.34
2023-03-08T13:12:32.127Z,98252.75
2023-03-08T13:15:22.998Z,98257.34
2023-03-08T13:17:59.910Z,98264.63
2023-03-08T13:20:42.283Z,98237.19
2023-03-08T13:23:14.831Z,98252.81
2023-03-08T13:26:15.060Z,98251.97
2023-03-08T13:28:48.439Z,98245.22
2023-03-08T13:31:19.583Z,98249.31
2023-03-08T13:33:50.486Z,98247.22
2023-03-08T13:36:19.245Z,98249.72
2023-03-08T13:39:01.079Z,98245.34
2023-03-08T13:41:36.826Z,98242.63
2023-03-08T13:44:07.434Z,98243.84
2023-03-08T13:46:49.098Z,98249.00
2023-03-08T13:49:29.538Z,98255.06
2023-03-08T13:52:01.735Z,98243.97
2023-03-08T13:54:39.879Z,98254.81
2023-03-08T13:57:17.759Z,98257.31
2023-03-08T14:00:11.261Z,98262.16
2023-03-08T14:02:46.381Z,98253.78
2023-03-08T14:05:21.120Z,98250.22
2023-03-08T14:08:05.508Z,98247.31
2023-03-08T14:10:39.034Z,98231.84
2023-03-08T14:13:12.857Z,98228.91
2023-03-08T14:15:39.845Z,98231.78
2023-03-08T14:18:21.003Z,98225.44
2023-03-08T14:21:05.223Z,98218.88
2023-03-08T14:23:40.407Z,98227.31
2023-03-08T14:26:33.920Z,98223.75
2023-03-08T14:29:19.787Z,98224.13
2023-03-08T14:32:05.576Z,98227.84
2023-03-08T14:34:52.452Z,98229.03
2023-03-08T14:37:30.665Z,98225.50
2023-03-08T14:40:24.318Z,98214.53
2023-03-08T14:42:55.210Z,98209.38
2023-03-08T14:45:35.193Z,98211.56
2023-03-08T14:48:24.773Z,98211.78
2023-03-08T14:50:52.868Z,98203.88
2023-03-08T14:53:36.048Z,98197.31
2023-03-08T14:56:18.799Z,98195.84
2023-03-08T14:58:57.954Z,98192.13
2023-03-08T15:01:34.015Z,98187.75
2023-03-08T15:04:02.038Z,98185.03
2023-03-08T15:06:39.497Z,98174.03
2023-03-08T15:09:10.069Z,98175.94
2023-03-08T15:11:41.658Z,98169.34
2023-03-08T15:14:11.606Z,98175.16
2023-03-08T15:16:44.476Z,98175.28
2023-03-08T15:19:13.834Z,98164.31
2023-03-08T15:21:45.443Z,98152.25
2023-03-08T15:24:17.370Z,98158.75
2023-03-08T15:26:45.271Z,98161.47
2023-03-08T15:29:40.005Z,98161.13
2023-03-08T15:32:07.667Z,98165.34
2023-03-08T15:34:36.589Z,98166.41
2023-03-08T15:37:07.343Z,98161.19
2023-03-08T15:39:35.820Z,98156.59
2023-03-08T15:42:02.356Z,98162.88
2023-03-08T15:44:29.182Z,98154.97
2023-03-08T15:46:55.653Z,98156.97
2023-03-08T15:49:27.029Z,98135.00
2023-03-08T15:51:56.612Z,98130.38
2023-03-08T15:54:30.681Z,98138.53
2023-03-08T15:57:00.232Z,98140.22
2023-03-08T15:59:36.715Z,98138.41
2023-03-08T16:02:06.972Z,98150.31
2023-03-08T16:04:33.507Z,98138.53
2023-03-08T16:07:05.651Z,98153.06
2023-03-08T16:09:34.860Z,98162.66
2023-03-08T16:12:03.688Z,98166.94
2023-03-08T16:14:30.321Z,98155.81
2023-03-08T16:16:59.574Z,98159.63
2023-03-08T16:19:28.532Z,98152.06
2023-03-08T16:21:55.037Z,98149.09
2023-03-08T16:24:24.203Z,98145.19
2023-03-08T16:26:50.707Z,98153.34
2023-03-08T16:29:17.379Z,98156.19
2023-03-08T16:31:51.031Z,98161.50
2023-03-08T16:34:26.574Z,98152.91
2023-03-08T16:36:57.823Z,98151.72
2023-03-08T16:39:27.530Z,98139.16
2023-03-08T16:41:54.181Z,98154.44
2023-03-08T16:44:26.446Z,98146.28
2023-03-08T16:46:53.023Z,98133.38
2023-03-08T16:49:22.628Z,98131.13
2023-03-08T16:51:52.386Z,98130.75
2023-03-08T16:54:23.475Z,98136.94
2023-03-08T16:56:50.586Z,98138.22
2023-03-08T16:59:17.594Z,98147.91
2023-03-08T17:01:44.586Z,98135.47
2023-03-08T17:04:11.601Z,98148.16
2023-03-08T17:06:39.167Z,98138.47
2023-03-08T17:09:05.819Z,98149.81
2023-03-08T17:11:37.356Z,98148.00
2023-03-08T17:14:07.354Z,98129.94
2023-03-08T17:16:35.556Z,98129.56
2023-03-08T17:19:04.535Z,98137.63
2023-03-08T17:21:38.891Z,98141.84
2023-03-08T17:24:07.615Z,98137.38
2023-03-08T17:26:35.796Z,98148.47
2023-03-08T17:29:05.230Z,98135.94
2023-03-08T17:31:34.039Z,98129.69
2023-03-08T17:34:04.891Z,98134.28
2023-03-08T17:36:37.177Z,98122.94
2023-03-08T17:39:13.717Z,98134.03
2023-03-08T17:41:50.651Z,98130.38
2023-03-08T17:44:17.181Z,98131.91
2023-03-08T17:46:44.039Z,98122.34
2023-03-08T17:49:13.045Z,98124.94
2023-03-08T17:51:39.900Z,98120.53
2023-03-08T17:54:16.709Z,98122.31
2023-03-08T17:56:50.892Z,98125.47
2023-03-08T17:59:17.517Z,98117.59
2023-03-08T18:01:48.340Z,98124.06
2023-03-08T18:04:15.178Z,98129.63
2023-03-08T18:06:48.881Z,98137.19
2023-03-08T18:09:16.810Z,98144.38
2023-03-08T18:11:49.975Z,98163.41
2023-03-08T18:14:31.233Z,98169.38
2023-03-08T18:17:06.489Z,98161.22
2023-03-08T18:19:33.176Z,98159.50
2023-03-08T18:22:07.870Z,98163.63
2023-03-08T18:24:36.806Z,98169.06
2023-03-08T18:27:05.392Z,98165.38
2023-03-08T18:29:34.134Z,98157.47
2023-03-08T18:32:04.316Z,98159.13
2023-03-08T18:34:30.886Z,98161.84
2023-03-08T18:36:58.793Z,98150.72
2023-03-08T18:39:31.424Z,98139.28
2023-03-08T18:42:06.819Z,98133.75
2023-03-08T18:44:44.241Z,98126.53
2023-03-08T18:47:10.739Z,98136.94
2023-03-08T18:50:02.771Z,98147.31
2023-03-08T18:52:30.909Z,98162.44
2023-03-08T18:54:57.832Z,98158.88
2023-03-08T18:57:24.265Z,98143.50
2023-03-08T18:59:51.161Z,98144.34
2023-03-08T19:02:27.588Z,98136.81
2023-03-08T19:04:55.228Z,98137.19
2023-03-08T19:07:26.570Z,98148.31
2023-03-08T19:10:00.268Z,98128.91
2023-03-08T19:12:33.795Z,98124.31
2023-03-08T19:15:01.864Z,98126.41
2023-03-08T19:17:28.466Z,98138.13
2023-03-08T19:19:55.095Z,98141.31
2023-03-08T19:22:21.675Z,98142.94
2023-03-08T19:24:48.536Z,98142.13
2023-03-08T19:27:17.259Z,98149.16
2023-03-08T19:29:46.023Z,98151.09
2023-03-08T19:32:14.936Z,98153.44
2023-03-08T19:34:44.930Z,98168.69
2023-03-08T19:37:15.672Z,98177.22
2023-03-08T19:39:47.087Z,98183.47
2023-03-08T19:42:18.340Z,98187.13
2023-03-08T19:44:48.362Z,98190.19
2023-03-08T19:47:18.456Z,98188.16
2023-03-08T19:49:47.868Z,98187.59
2023-03-08T19:52:14.447Z,98175.06
2023-03-08T19:54:42.110Z,98185.97
2023-03-08T19:57:10.200Z,98200.09
2023-03-08T19:59:41.357Z,98205.41
2023-03-08T20:02:08.976Z,98213.63
2023-03-08T20:04:41.232Z,98207.13
2023-03-08T20:07:08.054Z,98192.13
2023-03-08T20:09:34.481Z,98196.47
2023-03-08T20:12:01.024Z,98182.31
2023-03-08T20:14:34.202Z,98174.38
2023-03-08T20:17:01.978Z,98177.16
2023-03-08T20:19:31.989Z,98174.06
2023-03-08T20:22:01.044Z,98189.22
2023-03-08T20:24:27.852Z,98191.47
2023-03-08T20:26:54.349Z,98190.41
2023-03-08T20:29:25.652Z,98188.31
2023-03-08T20:31:52.113Z,98195.50
2023-03-08T20:34:20.953Z,98188.84
2023-03-08T20:36:47.486Z,98175.28
2023-03-08T20:39:14.097Z,98184.47
2023-03-08T20:41:40.544Z,98178.59
2023-03-08T20:44:07.131Z,98177.88
2023-03-08T20:46:34.498Z,98185.34
2023-03-08T20:49:01.582Z,98177.88
2023-03-08T20:51:28.422Z,98174.81
2023-03-08T20:53:57.786Z,98181.31
2023-03-08T20:56:27.425Z,98179.88
2023-03-08T20:58:57.799Z,98180.13
2023-03-08T21:01:35.117Z,98174.44
2023-03-08T21:04:11.326Z,98173.03
2023-03-08T21:06:44.880Z,98178.81
2023-03-08T21:09:15.124Z,98169.94
2023-03-08T21:11:42.359Z,98177.53
2023-03-08T21:14:14.250Z,98169.84
2023-03-08T21:16:41.423Z,98162.63
2023-03-08T21:19:15.784Z,98162.00
2023-03-08T21:21:53.460Z,98160.59
2023-03-08T21:24:23.665Z,98147.00
2023-03-08T21:27:04.993Z,98155.25
2023-03-08T21:29:36.784Z,98157.28
2023-03-08T21:32:08.337Z,98153.28
2023-03-08T21:34:34.965Z,98153.97
2023-03-08T21:37:06.096Z,98149.38
2023-03-08T21:39:35.081Z,98149.16
2023-03-08T21:42:01.794Z,98139.91
2023-03-08T21:44:32.075Z,98147.22
2023-03-08T21:47:04.143Z,98149.38
2023-03-08T21:49:32.744Z,98158.56
2023-03-08T21:52:01.726Z,98149.84
2023-03-08T21:54:34.230Z,98154.19
2023-03-08T21:57:01.033Z,98157.38
2023-03-08T21:59:39.076Z,98152.75
2023-03-08T22:02:14.662Z,98142.28
2023-03-08T22:04:43.579Z,98143.63
2023-03-08T22:07:12.515Z,98144.56
2023-03-08T22:09:52.060Z,98142.69
2023-03-08T22:12:20.050Z,98132.88
2023-03-08T22:14:46.857Z,98132.19
2023-03-08T22:17:17.237Z,98135.38
2023-03-08T22:19:44.082Z,98139.50
2023-03-08T22:22:11.550Z,98136.44
2023-03-08T22:24:38.023Z,98118.28
2023-03-08T22:27:07.127Z,98114.25
2023-03-08T22:29:34.712Z,98099.41
2023-03-08T22:32:01.576Z,98089.25
2023-03-08T22:34:28.265Z,98095.03
2023-03-08T22:36:57.593Z,98105.06
2023-03-08T22:39:24.228Z,98102.97
2023-03-08T22:41:55.616Z,98107.22
2023-03-08T22:44:22.960Z,98101.56
2023-03-08T22:46:52.091Z,98095.31
2023-03-08T22:49:18.699Z,98094.72
2023-03-08T22:51:45.432Z,98067.16
2023-03-08T22:54:19.759Z,98058.91
2023-03-08T22:57:05.805Z,98055.94
2023-03-08T22:59:32.475Z,98048.59
2023-03-08T23:01:59.075Z,98043.16
2023-03-08T23:04:25.903Z,98052.63
2023-03-08T23:06:54.876Z,98042.81
2023-03-08T23:09:29.696Z,98039.75
2023-03-08T23:12:02.745Z,98018.81
2023-03-08T23:14:29.188Z,98004.41
2023-03-08T23:17:01.318Z,98013.63
2023-03-08T23:19:28.263Z,98000.75
2023-03-08T23:22:04.972Z,97999.91
2023-03-08T23:24:31.467Z,97994.84
2023-03-08T23:27:03.816Z,97992.69
2023-03-08T23:29:33.944Z,97982.16
2023-03-08T23:32:00.672Z,97962.41
2023-03-08T23:34:38.039Z,97974.94
2023-03-08T23:37:07.218Z,97993.34
2023-03-08T23:39:36.884Z,97994.03
2023-03-08T23:42:09.009Z,97994.41
2023-03-08T23:44:39.457Z,97999.25
2023-03-08T23:47:06.262Z,97999.38
2023-03-08T23:49:35.665Z,98003.97
2023-03-08T23:52:04.837Z,98017.31
2023-03-08T23:54:31.365Z,98005.94
2023-03-08T23:56:57.906Z,98030.66
2023-03-08T23:59:24.701Z,98025.59
